sensor_id;sensor_type;location;lat;lon;timestamp;temperature;humidity
13172;DHT22;6651;53.200;10.432;2023-06-24T00:01:24;16.50;99.90
13172;DHT22;6651;53.200;10.432;2023-06-24T00:03:49;16.50;99.90
13172;DHT22;6651;53.200;10.432;2023-06-24T00:06:22;16.50;99.90
13172;DHT22;6651;53.200;10.432;2023-06-24T00:08:51;16.60;99.90
13172;DHT22;6651;53.200;10.432;2023-06-24T00:11:18;16.50;99.90
13172;DHT22;6651;53.200;10.432;2023-06-24T00:13:44;16.50;99.90
13172;DHT22;6651;53.200;10.432;2023-06-24T00:16:10;16.40;99.90
13172;DHT22;6651;53.200;10.432;2023-06-24T00:18:37;16.20;99.90
13172;DHT22;6651;53.200;10.432;2023-06-24T00:21:06;16.30;99.90
13172;DHT22;6651;53.200;10.432;2023-06-24T00:23:32;16.30;99.90
13172;DHT22;6651;53.200;10.432;2023-06-24T00:26:00;16.40;99.90
13172;DHT22;6651;53.200;10.432;2023-06-24T00:28:26;16.40;99.90
13172;DHT22;6651;53.200;10.432;2023-06-24T00:30:52;16.50;99.90
13172;DHT22;6651;53.200;10.432;2023-06-24T00:33:18;16.50;99.90
13172;DHT22;6651;53.200;10.432;2023-06-24T00:35:46;16.40;99.90
13172;DHT22;6651;53.200;10.432;2023-06-24T00:38:12;16.30;99.90
13172;DHT22;6651;53.200;10.432;2023-06-24T00:40:38;16.30;99.90
13172;DHT22;6651;53.200;10.432;2023-06-24T00:43:05;16.30;99.90
13172;DHT22;6651;53.200;10.432;2023-06-24T00:45:31;16.30;99.90
13172;DHT22;6651;53.200;10.432;2023-06-24T00:47:58;16.30;99.90
13172;DHT22;6651;53.200;10.432;2023-06-24T00:50:24;16.30;99.90
13172;DHT22;6651;53.200;10.432;2023-06-24T00:52:49;16.30;99.90
13172;DHT22;6651;53.200;10.432;2023-06-24T00:55:16;16.30;99.90
13172;DHT22;6651;53.200;10.432;2023-06-24T00:57:46;16.30;99.90
13172;DHT22;6651;53.200;10.432;2023-06-24T01:00:20;16.30;99.90
13172;DHT22;6651;53.200;10.432;2023-06-24T01:02:47;16.20;99.90
13172;DHT22;6651;53.200;10.432;2023-06-24T01:05:14;16.10;99.90
13172;DHT22;6651;53.200;10.432;2023-06-24T01:07:41;16.10;99.90
13172;DHT22;6651;53.200;10.432;2023-06-24T01:10:08;16.10;99.90
13172;DHT22;6651;53.200;10.432;2023-06-24T01:12:34;16.10;99.90
13172;DHT22;6651;53.200;10.432;2023-06-24T01:15:01;16.10;99.90
13172;DHT22;6651;53.200;10.432;2023-06-24T01:17:49;16.00;99.90
13172;DHT22;6651;53.200;10.432;2023-06-24T01:20:25;16.00;99.90
13172;DHT22;6651;53.200;10.432;2023-06-24T01:25:59;16.00;99.90
13172;DHT22;6651;53.200;10.432;2023-06-24T01:34:43;15.80;99.90
13172;DHT22;6651;53.200;10.432;2023-06-24T01:40:22;15.80;99.90
13172;DHT22;6651;53.200;10.432;2023-06-24T01:42:50;15.80;99.90
13172;DHT22;6651;53.200;10.432;2023-06-24T01:45:36;15.70;99.90
13172;DHT22;6651;53.200;10.432;2023-06-24T01:48:09;15.70;99.90
13172;DHT22;6651;53.200;10.432;2023-06-24T01:50:39;15.70;99.90
13172;DHT22;6651;53.200;10.432;2023-06-24T01:53:08;15.70;99.90
13172;DHT22;6651;53.200;10.432;2023-06-24T01:55:36;15.70;99.90
13172;DHT22;6651;53.200;10.432;2023-06-24T01:58:04;15.70;99.90
13172;DHT22;6651;53.200;10.432;2023-06-24T02:00:32;15.70;99.90
13172;DHT22;6651;53.200;10.432;2023-06-24T02:02:59;15.70;99.90
13172;DHT22;6651;53.200;10.432;2023-06-24T02:05:25;15.70;99.90
13172;DHT22;6651;53.200;10.432;2023-06-24T02:07:52;15.70;99.90
13172;DHT22;6651;53.200;10.432;2023-06-24T02:10:20;15.50;99.90
13172;DHT22;6651;53.200;10.432;2023-06-24T02:12:48;15.50;99.90
13172;DHT22;6651;53.200;10.432;2023-06-24T02:15:16;15.60;99.90
13172;DHT22;6651;53.200;10.432;2023-06-24T02:17:42;15.60;99.90
13172;DHT22;6651;53.200;10.432;2023-06-24T02:20:09;15.60;99.90
13172;DHT22;6651;53.200;10.432;2023-06-24T02:22:37;15.60;99.90
13172;DHT22;6651;53.200;10.432;2023-06-24T02:25:05;15.50;99.90
13172;DHT22;6651;53.200;10.432;2023-06-24T02:27:32;15.50;99.90
13172;DHT22;6651;53.200;10.432;2023-06-24T02:30:00;15.50;99.90
13172;DHT22;6651;53.200;10.432;2023-06-24T02:32:26;15.50;99.90
13172;DHT22;6651;53.200;10.432;2023-06-24T02:34:52;15.50;99.90
13172;DHT22;6651;53.200;10.432;2023-06-24T02:37:17;15.40;99.90
13172;DHT22;6651;53.200;10.432;2023-06-24T02:39:43;15.40;99.90
13172;DHT22;6651;53.200;10.432;2023-06-24T02:42:12;15.40;99.90
13172;DHT22;6651;53.200;10.432;2023-06-24T02:44:39;15.40;99.90
13172;DHT22;6651;53.200;10.432;2023-06-24T02:47:08;15.40;99.90
13172;DHT22;6651;53.200;10.432;2023-06-24T02:49:35;15.40;99.90
13172;DHT22;6651;53.200;10.432;2023-06-24T02:52:03;15.40;99.90
13172;DHT22;6651;53.200;10.432;2023-06-24T02:54:29;15.40;99.90
13172;DHT22;6651;53.200;10.432;2023-06-24T02:56:56;15.30;99.90
13172;DHT22;6651;53.200;10.432;2023-06-24T02:59:26;15.30;99.90
13172;DHT22;6651;53.200;10.432;2023-06-24T03:01:52;15.30;99.90
13172;DHT22;6651;53.200;10.432;2023-06-24T03:04:19;15.30;99.90
13172;DHT22;6651;53.200;10.432;2023-06-24T03:06:45;15.30;99.90
13172;DHT22;6651;53.200;10.432;2023-06-24T03:09:11;15.30;99.90
13172;DHT22;6651;53.200;10.432;2023-06-24T03:11:44;15.30;99.90
13172;DHT22;6651;53.200;10.432;2023-06-24T03:14:10;15.30;99.90
13172;DHT22;6651;53.200;10.432;2023-06-24T03:16:36;15.20;99.90
13172;DHT22;6651;53.200;10.432;2023-06-24T03:19:04;15.20;99.90
13172;DHT22;6651;53.200;10.432;2023-06-24T03:21:29;15.20;99.90
13172;DHT22;6651;53.200;10.432;2023-06-24T03:23:55;15.20;99.90
13172;DHT22;6651;53.200;10.432;2023-06-24T03:26:22;15.20;99.90
13172;DHT22;6651;53.200;10.432;2023-06-24T03:28:47;15.10;99.90
13172;DHT22;6651;53.200;10.432;2023-06-24T03:31:15;15.10;99.90
13172;DHT22;6651;53.200;10.432;2023-06-24T03:33:41;15.00;99.90
13172;DHT22;6651;53.200;10.432;2023-06-24T03:36:11;15.00;99.90
13172;DHT22;6651;53.200;10.432;2023-06-24T03:38:36;15.00;99.90
13172;DHT22;6651;53.200;10.432;2023-06-24T03:41:02;15.00;99.90
13172;DHT22;6651;53.200;10.432;2023-06-24T03:43:28;15.00;99.90
13172;DHT22;6651;53.200;10.432;2023-06-24T03:45:54;14.90;99.90
13172;DHT22;6651;53.200;10.432;2023-06-24T03:48:20;14.90;99.90
13172;DHT22;6651;53.200;10.432;2023-06-24T03:50:46;14.90;99.90
13172;DHT22;6651;53.200;10.432;2023-06-24T03:53:12;14.90;99.90
13172;DHT22;6651;53.200;10.432;2023-06-24T03:55:37;14.90;99.90
13172;DHT22;6651;53.200;10.432;2023-06-24T03:58:03;14.90;99.90
13172;DHT22;6651;53.200;10.432;2023-06-24T04:00:29;15.00;99.90
13172;DHT22;6651;53.200;10.432;2023-06-24T04:02:54;15.00;99.90
13172;DHT22;6651;53.200;10.432;2023-06-24T04:05:21;14.90;99.90
13172;DHT22;6651;53.200;10.432;2023-06-24T04:07:50;14.90;99.90
13172;DHT22;6651;53.200;10.432;2023-06-24T04:10:16;15.00;99.90
13172;DHT22;6651;53.200;10.432;2023-06-24T04:12:42;14.90;99.90
13172;DHT22;6651;53.200;10.432;2023-06-24T04:15:08;14.90;99.90
13172;DHT22;6651;53.200;10.432;2023-06-24T04:17:34;14.90;99.90
13172;DHT22;6651;53.200;10.432;2023-06-24T04:20:00;14.90;99.90
13172;DHT22;6651;53.200;10.432;2023-06-24T04:22:26;14.90;99.90
13172;DHT22;6651;53.200;10.432;2023-06-24T04:24:51;14.90;99.90
13172;DHT22;6651;53.200;10.432;2023-06-24T04:27:17;14.80;99.90
13172;DHT22;6651;53.200;10.432;2023-06-24T04:29:43;14.90;99.90
13172;DHT22;6651;53.200;10.432;2023-06-24T04:32:09;14.80;99.90
13172;DHT22;6651;53.200;10.432;2023-06-24T04:34:34;14.80;99.90
13172;DHT22;6651;53.200;10.432;2023-06-24T04:37:00;14.90;99.90
13172;DHT22;6651;53.200;10.432;2023-06-24T04:39:26;14.90;99.90
13172;DHT22;6651;53.200;10.432;2023-06-24T04:41:51;14.90;99.90
13172;DHT22;6651;53.200;10.432;2023-06-24T04:44:17;14.90;99.90
13172;DHT22;6651;53.200;10.432;2023-06-24T04:46:45;14.90;99.90
13172;DHT22;6651;53.200;10.432;2023-06-24T04:49:11;14.90;99.90
13172;DHT22;6651;53.200;10.432;2023-06-24T04:51:36;14.90;99.90
13172;DHT22;6651;53.200;10.432;2023-06-24T04:54:02;15.00;99.90
13172;DHT22;6651;53.200;10.432;2023-06-24T04:56:29;15.00;99.90
13172;DHT22;6651;53.200;10.432;2023-06-24T04:58:55;15.00;99.90
13172;DHT22;6651;53.200;10.432;2023-06-24T05:01:21;15.10;99.90
13172;DHT22;6651;53.200;10.432;2023-06-24T05:03:47;15.20;99.90
13172;DHT22;6651;53.200;10.432;2023-06-24T05:06:13;15.20;99.90
13172;DHT22;6651;53.200;10.432;2023-06-24T05:08:38;15.30;99.90
13172;DHT22;6651;53.200;10.432;2023-06-24T05:11:04;15.40;99.90
13172;DHT22;6651;53.200;10.432;2023-06-24T05:13:30;15.50;99.90
13172;DHT22;6651;53.200;10.432;2023-06-24T05:15:56;15.50;99.90
13172;DHT22;6651;53.200;10.432;2023-06-24T05:18:22;15.50;99.90
13172;DHT22;6651;53.200;10.432;2023-06-24T05:20:47;15.60;99.90
13172;DHT22;6651;53.200;10.432;2023-06-24T05:23:13;15.60;99.90
13172;DHT22;6651;53.200;10.432;2023-06-24T05:25:39;15.70;99.90
13172;DHT22;6651;53.200;10.432;2023-06-24T05:28:04;15.70;99.90
13172;DHT22;6651;53.200;10.432;2023-06-24T05:30:30;15.80;99.90
13172;DHT22;6651;53.200;10.432;2023-06-24T05:32:56;15.90;99.90
13172;DHT22;6651;53.200;10.432;2023-06-24T05:35:21;16.00;99.90
13172;DHT22;6651;53.200;10.432;2023-06-24T05:37:47;16.10;99.90
13172;DHT22;6651;53.200;10.432;2023-06-24T05:40:13;16.10;99.90
13172;DHT22;6651;53.200;10.432;2023-06-24T05:42:39;16.20;99.90
13172;DHT22;6651;53.200;10.432;2023-06-24T05:45:05;16.30;99.90
13172;DHT22;6651;53.200;10.432;2023-06-24T05:47:32;16.40;99.90
13172;DHT22;6651;53.200;10.432;2023-06-24T05:49:58;16.50;99.90
13172;DHT22;6651;53.200;10.432;2023-06-24T05:52:24;16.50;99.90
13172;DHT22;6651;53.200;10.432;2023-06-24T05:54:49;16.60;99.90
13172;DHT22;6651;53.200;10.432;2023-06-24T05:57:15;16.60;99.90
13172;DHT22;6651;53.200;10.432;2023-06-24T05:59:41;16.70;99.90
13172;DHT22;6651;53.200;10.432;2023-06-24T06:02:06;16.70;99.90
13172;DHT22;6651;53.200;10.432;2023-06-24T06:04:32;16.80;99.90
13172;DHT22;6651;53.200;10.432;2023-06-24T06:06:58;16.80;99.90
13172;DHT22;6651;53.200;10.432;2023-06-24T06:09:24;16.90;99.90
13172;DHT22;6651;53.200;10.432;2023-06-24T06:11:49;17.00;99.90
13172;DHT22;6651;53.200;10.432;2023-06-24T06:14:15;17.00;99.90
13172;DHT22;6651;53.200;10.432;2023-06-24T06:16:41;17.10;99.90
13172;DHT22;6651;53.200;10.432;2023-06-24T06:19:06;17.20;99.90
13172;DHT22;6651;53.200;10.432;2023-06-24T06:21:32;17.30;99.90
13172;DHT22;6651;53.200;10.432;2023-06-24T06:23:58;17.40;99.90
13172;DHT22;6651;53.200;10.432;2023-06-24T06:26:23;17.50;99.90
13172;DHT22;6651;53.200;10.432;2023-06-24T06:28:49;17.60;99.90
13172;DHT22;6651;53.200;10.432;2023-06-24T06:31:15;17.70;99.90
13172;DHT22;6651;53.200;10.432;2023-06-24T06:33:42;17.80;99.90
13172;DHT22;6651;53.200;10.432;2023-06-24T06:36:08;17.80;99.90
13172;DHT22;6651;53.200;10.432;2023-06-24T06:38:34;17.90;99.90
13172;DHT22;6651;53.200;10.432;2023-06-24T06:41:00;18.00;99.90
13172;DHT22;6651;53.200;10.432;2023-06-24T06:43:25;18.20;99.90
13172;DHT22;6651;53.200;10.432;2023-06-24T06:45:51;18.30;99.90
13172;DHT22;6651;53.200;10.432;2023-06-24T06:48:17;18.40;99.90
13172;DHT22;6651;53.200;10.432;2023-06-24T06:50:43;18.50;99.90
13172;DHT22;6651;53.200;10.432;2023-06-24T06:53:09;18.50;99.90
13172;DHT22;6651;53.200;10.432;2023-06-24T06:55:36;18.70;99.90
13172;DHT22;6651;53.200;10.432;2023-06-24T06:58:02;18.70;99.90
13172;DHT22;6651;53.200;10.432;2023-06-24T07:00:28;18.70;99.90
13172;DHT22;6651;53.200;10.432;2023-06-24T07:02:53;18.70;99.90
13172;DHT22;6651;53.200;10.432;2023-06-24T07:05:19;18.70;99.90
13172;DHT22;6651;53.200;10.432;2023-06-24T07:07:44;18.70;99.90
13172;DHT22;6651;53.200;10.432;2023-06-24T07:10:11;18.90;99.90
13172;DHT22;6651;53.200;10.432;2023-06-24T07:12:36;19.00;99.90
13172;DHT22;6651;53.200;10.432;2023-06-24T07:15:02;19.10;99.90
13172;DHT22;6651;53.200;10.432;2023-06-24T07:17:28;19.20;99.90
13172;DHT22;6651;53.200;10.432;2023-06-24T07:19:54;19.20;99.90
13172;DHT22;6651;53.200;10.432;2023-06-24T07:22:19;19.40;99.90
13172;DHT22;6651;53.200;10.432;2023-06-24T07:24:45;19.50;99.90
13172;DHT22;6651;53.200;10.432;2023-06-24T07:27:11;19.60;99.90
13172;DHT22;6651;53.200;10.432;2023-06-24T07:29:36;19.70;99.90
13172;DHT22;6651;53.200;10.432;2023-06-24T07:32:02;19.80;99.90
13172;DHT22;6651;53.200;10.432;2023-06-24T07:34:29;19.70;99.90
13172;DHT22;6651;53.200;10.432;2023-06-24T07:36:56;19.90;99.90
13172;DHT22;6651;53.200;10.432;2023-06-24T07:39:22;19.90;99.90
13172;DHT22;6651;53.200;10.432;2023-06-24T07:41:48;20.10;99.90
13172;DHT22;6651;53.200;10.432;2023-06-24T07:44:13;20.10;99.90
13172;DHT22;6651;53.200;10.432;2023-06-24T07:46:39;20.20;99.90
13172;DHT22;6651;53.200;10.432;2023-06-24T07:49:05;20.30;99.90
13172;DHT22;6651;53.200;10.432;2023-06-24T07:51:31;20.50;99.90
13172;DHT22;6651;53.200;10.432;2023-06-24T07:54:00;20.70;99.90
13172;DHT22;6651;53.200;10.432;2023-06-24T07:56:26;20.90;99.90
13172;DHT22;6651;53.200;10.432;2023-06-24T07:58:51;21.20;99.90
13172;DHT22;6651;53.200;10.432;2023-06-24T08:01:17;21.40;99.90
13172;DHT22;6651;53.200;10.432;2023-06-24T08:03:43;21.50;99.90
13172;DHT22;6651;53.200;10.432;2023-06-24T08:06:08;21.50;99.90
13172;DHT22;6651;53.200;10.432;2023-06-24T08:08:34;21.60;99.90
13172;DHT22;6651;53.200;10.432;2023-06-24T08:11:02;21.80;99.90
13172;DHT22;6651;53.200;10.432;2023-06-24T08:13:28;22.00;99.90
13172;DHT22;6651;53.200;10.432;2023-06-24T08:15:53;22.00;99.90
13172;DHT22;6651;53.200;10.432;2023-06-24T08:18:19;22.00;99.90
13172;DHT22;6651;53.200;10.432;2023-06-24T08:20:45;22.10;99.90
13172;DHT22;6651;53.200;10.432;2023-06-24T08:23:10;22.30;99.90
13172;DHT22;6651;53.200;10.432;2023-06-24T08:25:36;22.40;99.90
13172;DHT22;6651;53.200;10.432;2023-06-24T08:28:02;22.40;99.90
13172;DHT22;6651;53.200;10.432;2023-06-24T08:30:27;22.20;99.90
13172;DHT22;6651;53.200;10.432;2023-06-24T08:32:53;22.40;99.90
13172;DHT22;6651;53.200;10.432;2023-06-24T08:35:19;22.50;99.90
13172;DHT22;6651;53.200;10.432;2023-06-24T08:37:47;22.70;99.90
13172;DHT22;6651;53.200;10.432;2023-06-24T08:40:13;22.90;99.90
13172;DHT22;6651;53.200;10.432;2023-06-24T08:42:38;23.20;99.90
13172;DHT22;6651;53.200;10.432;2023-06-24T08:45:04;23.30;99.90
13172;DHT22;6651;53.200;10.432;2023-06-24T08:47:30;23.50;99.90
13172;DHT22;6651;53.200;10.432;2023-06-24T08:50:03;23.50;99.90
13172;DHT22;6651;53.200;10.432;2023-06-24T08:52:31;23.60;99.90
13172;DHT22;6651;53.200;10.432;2023-06-24T08:54:59;23.60;99.90
13172;DHT22;6651;53.200;10.432;2023-06-24T08:57:24;23.70;99.90
13172;DHT22;6651;53.200;10.432;2023-06-24T08:59:50;23.60;99.90
13172;DHT22;6651;53.200;10.432;2023-06-24T09:02:16;23.60;99.90
13172;DHT22;6651;53.200;10.432;2023-06-24T09:04:41;23.60;99.90
13172;DHT22;6651;53.200;10.432;2023-06-24T09:07:07;23.70;99.90
13172;DHT22;6651;53.200;10.432;2023-06-24T09:09:42;23.80;99.90
13172;DHT22;6651;53.200;10.432;2023-06-24T09:12:11;23.80;99.90
13172;DHT22;6651;53.200;10.432;2023-06-24T09:14:37;24.00;99.90
13172;DHT22;6651;53.200;10.432;2023-06-24T09:17:03;24.20;99.90
13172;DHT22;6651;53.200;10.432;2023-06-24T09:19:31;24.50;99.90
13172;DHT22;6651;53.200;10.432;2023-06-24T09:22:03;24.50;99.90
13172;DHT22;6651;53.200;10.432;2023-06-24T09:24:33;24.50;99.90
13172;DHT22;6651;53.200;10.432;2023-06-24T09:26:59;24.60;99.90
13172;DHT22;6651;53.200;10.432;2023-06-24T09:29:32;24.70;99.90
13172;DHT22;6651;53.200;10.432;2023-06-24T09:31:57;24.50;99.90
13172;DHT22;6651;53.200;10.432;2023-06-24T09:34:26;24.50;99.90
13172;DHT22;6651;53.200;10.432;2023-06-24T09:36:54;24.70;99.90
13172;DHT22;6651;53.200;10.432;2023-06-24T09:39:20;24.80;99.90
13172;DHT22;6651;53.200;10.432;2023-06-24T09:41:51;25.00;99.90
13172;DHT22;6651;53.200;10.432;2023-06-24T09:44:17;25.10;99.90
13172;DHT22;6651;53.200;10.432;2023-06-24T09:46:45;25.30;99.90
13172;DHT22;6651;53.200;10.432;2023-06-24T09:49:11;25.40;99.90
13172;DHT22;6651;53.200;10.432;2023-06-24T09:51:43;25.50;99.90
13172;DHT22;6651;53.200;10.432;2023-06-24T09:54:11;25.50;99.90
13172;DHT22;6651;53.200;10.432;2023-06-24T09:56:39;25.60;99.90
13172;DHT22;6651;53.200;10.432;2023-06-24T09:59:06;25.70;99.90
13172;DHT22;6651;53.200;10.432;2023-06-24T10:01:36;25.70;99.90
13172;DHT22;6651;53.200;10.432;2023-06-24T10:04:02;25.70;99.90
13172;DHT22;6651;53.200;10.432;2023-06-24T10:06:29;25.70;99.90
13172;DHT22;6651;53.200;10.432;2023-06-24T10:08:56;25.70;99.90
13172;DHT22;6651;53.200;10.432;2023-06-24T10:11:22;25.70;99.90
13172;DHT22;6651;53.200;10.432;2023-06-24T10:13:47;25.70;99.90
13172;DHT22;6651;53.200;10.432;2023-06-24T10:16:13;25.90;99.90
13172;DHT22;6651;53.200;10.432;2023-06-24T10:18:41;26.00;99.90
13172;DHT22;6651;53.200;10.432;2023-06-24T10:21:09;26.10;99.90
13172;DHT22;6651;53.200;10.432;2023-06-24T10:26:29;26.10;99.90
13172;DHT22;6651;53.200;10.432;2023-06-24T10:29:08;26.20;99.90
13172;DHT22;6651;53.200;10.432;2023-06-24T10:34:31;26.10;99.90
13172;DHT22;6651;53.200;10.432;2023-06-24T10:36:59;26.10;99.90
13172;DHT22;6651;53.200;10.432;2023-06-24T10:44:51;26.50;99.90
13172;DHT22;6651;53.200;10.432;2023-06-24T10:47:18;26.80;99.90
13172;DHT22;6651;53.200;10.432;2023-06-24T10:49:43;27.00;99.90
13172;DHT22;6651;53.200;10.432;2023-06-24T10:52:10;27.20;99.90
13172;DHT22;6651;53.200;10.432;2023-06-24T10:54:40;27.30;99.90
13172;DHT22;6651;53.200;10.432;2023-06-24T10:57:07;27.20;99.90
13172;DHT22;6651;53.200;10.432;2023-06-24T10:59:40;27.10;99.90
13172;DHT22;6651;53.200;10.432;2023-06-24T11:02:07;27.30;99.90
13172;DHT22;6651;53.200;10.432;2023-06-24T11:04:48;27.60;99.90
13172;DHT22;6651;53.200;10.432;2023-06-24T11:07:16;27.70;99.90
13172;DHT22;6651;53.200;10.432;2023-06-24T11:09:47;27.60;99.90
13172;DHT22;6651;53.200;10.432;2023-06-24T11:12:13;27.70;99.90
13172;DHT22;6651;53.200;10.432;2023-06-24T11:14:39;27.70;99.90
13172;DHT22;6651;53.200;10.432;2023-06-24T11:17:05;27.60;99.90
13172;DHT22;6651;53.200;10.432;2023-06-24T11:19:31;27.60;99.90
13172;DHT22;6651;53.200;10.432;2023-06-24T11:22:01;27.50;99.90
13172;DHT22;6651;53.200;10.432;2023-06-24T11:24:27;27.40;99.90
13172;DHT22;6651;53.200;10.432;2023-06-24T11:26:53;27.50;99.90
13172;DHT22;6651;53.200;10.432;2023-06-24T11:29:19;27.50;99.90
13172;DHT22;6651;53.200;10.432;2023-06-24T11:31:45;27.70;99.90
13172;DHT22;6651;53.200;10.432;2023-06-24T11:34:11;28.00;99.90
13172;DHT22;6651;53.200;10.432;2023-06-24T11:36:37;27.90;99.90
13172;DHT22;6651;53.200;10.432;2023-06-24T11:39:02;28.00;99.90
13172;DHT22;6651;53.200;10.432;2023-06-24T11:41:28;28.00;99.90
13172;DHT22;6651;53.200;10.432;2023-06-24T11:43:57;27.90;99.90
13172;DHT22;6651;53.200;10.432;2023-06-24T11:46:27;27.80;99.90
13172;DHT22;6651;53.200;10.432;2023-06-24T11:49:06;27.80;99.90
13172;DHT22;6651;53.200;10.432;2023-06-24T11:51:32;27.50;99.90
13172;DHT22;6651;53.200;10.432;2023-06-24T11:54:05;27.60;99.90
13172;DHT22;6651;53.200;10.432;2023-06-24T11:56:42;27.60;99.90
13172;DHT22;6651;53.200;10.432;2023-06-24T11:59:16;27.60;99.90
13172;DHT22;6651;53.200;10.432;2023-06-24T12:01:43;27.60;99.90
13172;DHT22;6651;53.200;10.432;2023-06-24T12:04:15;27.50;99.90
13172;DHT22;6651;53.200;10.432;2023-06-24T12:06:42;27.50;99.90
13172;DHT22;6651;53.200;10.432;2023-06-24T12:09:09;27.10;99.90
13172;DHT22;6651;53.200;10.432;2023-06-24T12:11:35;27.20;99.90
13172;DHT22;6651;53.200;10.432;2023-06-24T12:14:00;27.00;99.90
13172;DHT22;6651;53.200;10.432;2023-06-24T12:16:26;27.10;99.90
13172;DHT22;6651;53.200;10.432;2023-06-24T12:18:52;27.30;99.90
13172;DHT22;6651;53.200;10.432;2023-06-24T12:21:19;27.20;99.90
13172;DHT22;6651;53.200;10.432;2023-06-24T12:23:45;27.00;99.90
13172;DHT22;6651;53.200;10.432;2023-06-24T12:26:11;26.80;99.90
13172;DHT22;6651;53.200;10.432;2023-06-24T12:28:37;26.70;99.90
13172;DHT22;6651;53.200;10.432;2023-06-24T12:31:02;26.70;99.90
13172;DHT22;6651;53.200;10.432;2023-06-24T12:33:31;27.00;99.90
13172;DHT22;6651;53.200;10.432;2023-06-24T12:35:56;27.10;99.90
13172;DHT22;6651;53.200;10.432;2023-06-24T12:38:22;27.20;99.90
13172;DHT22;6651;53.200;10.432;2023-06-24T12:40:48;27.10;99.90
13172;DHT22;6651;53.200;10.432;2023-06-24T12:43:14;27.10;99.90
13172;DHT22;6651;53.200;10.432;2023-06-24T12:45:40;27.20;99.90
13172;DHT22;6651;53.200;10.432;2023-06-24T12:48:09;27.50;99.90
13172;DHT22;6651;53.200;10.432;2023-06-24T12:50:34;27.70;99.90
13172;DHT22;6651;53.200;10.432;2023-06-24T12:53:00;27.70;99.90
13172;DHT22;6651;53.200;10.432;2023-06-24T12:55:25;27.60;99.90
13172;DHT22;6651;53.200;10.432;2023-06-24T12:57:51;27.50;99.90
13172;DHT22;6651;53.200;10.432;2023-06-24T13:00:19;27.60;99.90
13172;DHT22;6651;53.200;10.432;2023-06-24T13:02:46;27.80;99.90
13172;DHT22;6651;53.200;10.432;2023-06-24T13:05:12;27.90;99.90
13172;DHT22;6651;53.200;10.432;2023-06-24T13:07:37;27.90;99.90
13172;DHT22;6651;53.200;10.432;2023-06-24T13:10:03;28.00;99.90
13172;DHT22;6651;53.200;10.432;2023-06-24T13:12:31;27.90;99.90
13172;DHT22;6651;53.200;10.432;2023-06-24T13:14:57;27.70;99.90
13172;DHT22;6651;53.200;10.432;2023-06-24T13:17:23;27.60;99.90
13172;DHT22;6651;53.200;10.432;2023-06-24T13:19:50;27.60;99.90
13172;DHT22;6651;53.200;10.432;2023-06-24T13:22:16;27.50;99.90
13172;DHT22;6651;53.200;10.432;2023-06-24T13:24:42;27.70;99.90
13172;DHT22;6651;53.200;10.432;2023-06-24T13:27:08;28.00;99.90
13172;DHT22;6651;53.200;10.432;2023-06-24T13:29:33;28.30;99.90
13172;DHT22;6651;53.200;10.432;2023-06-24T13:31:59;28.50;99.90
13172;DHT22;6651;53.200;10.432;2023-06-24T13:34:25;28.10;99.90
13172;DHT22;6651;53.200;10.432;2023-06-24T13:36:50;27.80;99.90
13172;DHT22;6651;53.200;10.432;2023-06-24T13:39:16;27.50;99.90
13172;DHT22;6651;53.200;10.432;2023-06-24T13:41:47;27.50;99.90
13172;DHT22;6651;53.200;10.432;2023-06-24T13:44:13;27.50;99.90
13172;DHT22;6651;53.200;10.432;2023-06-24T13:46:39;27.60;99.90
13172;DHT22;6651;53.200;10.432;2023-06-24T13:49:04;27.70;99.90
13172;DHT22;6651;53.200;10.432;2023-06-24T13:51:30;27.90;99.90
13172;DHT22;6651;53.200;10.432;2023-06-24T13:53:56;27.60;99.90
13172;DHT22;6651;53.200;10.432;2023-06-24T13:56:24;27.40;99.90
13172;DHT22;6651;53.200;10.432;2023-06-24T13:58:51;27.40;99.90
13172;DHT22;6651;53.200;10.432;2023-06-24T14:01:17;27.50;99.90
13172;DHT22;6651;53.200;10.432;2023-06-24T14:03:43;27.70;99.90
13172;DHT22;6651;53.200;10.432;2023-06-24T14:06:09;28.00;99.90
13172;DHT22;6651;53.200;10.432;2023-06-24T14:08:36;28.00;99.90
13172;DHT22;6651;53.200;10.432;2023-06-24T14:11:02;28.00;99.90
13172;DHT22;6651;53.200;10.432;2023-06-24T14:13:28;28.10;99.90
13172;DHT22;6651;53.200;10.432;2023-06-24T14:15:57;28.30;99.90
13172;DHT22;6651;53.200;10.432;2023-06-24T14:18:23;28.30;99.90
13172;DHT22;6651;53.200;10.432;2023-06-24T14:20:49;28.30;99.90
13172;DHT22;6651;53.200;10.432;2023-06-24T14:23:14;28.30;99.90
13172;DHT22;6651;53.200;10.432;2023-06-24T14:25:40;28.20;99.90
13172;DHT22;6651;53.200;10.432;2023-06-24T14:28:06;28.20;99.90
13172;DHT22;6651;53.200;10.432;2023-06-24T14:30:33;28.30;99.90
13172;DHT22;6651;53.200;10.432;2023-06-24T14:32:59;28.50;99.90
13172;DHT22;6651;53.200;10.432;2023-06-24T14:35:25;28.50;99.90
13172;DHT22;6651;53.200;10.432;2023-06-24T14:37:51;28.40;99.90
13172;DHT22;6651;53.200;10.432;2023-06-24T14:40:17;28.30;99.90
13172;DHT22;6651;53.200;10.432;2023-06-24T14:42:42;28.10;99.90
13172;DHT22;6651;53.200;10.432;2023-06-24T14:45:08;28.20;99.90
13172;DHT22;6651;53.200;10.432;2023-06-24T14:47:34;28.10;99.90
13172;DHT22;6651;53.200;10.432;2023-06-24T14:49:59;28.00;99.90
13172;DHT22;6651;53.200;10.432;2023-06-24T14:52:25;27.80;99.90
13172;DHT22;6651;53.200;10.432;2023-06-24T14:54:51;28.00;99.90
13172;DHT22;6651;53.200;10.432;2023-06-24T14:57:16;28.20;99.90
13172;DHT22;6651;53.200;10.432;2023-06-24T14:59:42;28.20;99.90
13172;DHT22;6651;53.200;10.432;2023-06-24T15:02:08;28.10;99.90
13172;DHT22;6651;53.200;10.432;2023-06-24T15:04:36;28.00;99.90
13172;DHT22;6651;53.200;10.432;2023-06-24T15:07:02;27.80;99.90
13172;DHT22;6651;53.200;10.432;2023-06-24T15:09:27;27.60;99.90
13172;DHT22;6651;53.200;10.432;2023-06-24T15:11:53;27.50;99.90
13172;DHT22;6651;53.200;10.432;2023-06-24T15:14:19;27.50;99.90
13172;DHT22;6651;53.200;10.432;2023-06-24T15:16:44;27.50;99.90
13172;DHT22;6651;53.200;10.432;2023-06-24T15:19:10;27.50;99.90
13172;DHT22;6651;53.200;10.432;2023-06-24T15:21:36;27.40;99.90
13172;DHT22;6651;53.200;10.432;2023-06-24T15:24:01;27.30;99.90
13172;DHT22;6651;53.200;10.432;2023-06-24T15:26:27;27.10;99.90
13172;DHT22;6651;53.200;10.432;2023-06-24T15:28:53;27.20;99.90
13172;DHT22;6651;53.200;10.432;2023-06-24T15:31:19;27.50;99.90
13172;DHT22;6651;53.200;10.432;2023-06-24T15:33:45;27.70;99.90
13172;DHT22;6651;53.200;10.432;2023-06-24T15:36:10;27.70;99.90
13172;DHT22;6651;53.200;10.432;2023-06-24T15:38:36;27.60;99.90
13172;DHT22;6651;53.200;10.432;2023-06-24T15:41:02;27.40;99.90
13172;DHT22;6651;53.200;10.432;2023-06-24T15:43:28;27.20;99.90
13172;DHT22;6651;53.200;10.432;2023-06-24T15:45:53;27.20;99.90
13172;DHT22;6651;53.200;10.432;2023-06-24T15:48:19;27.30;99.90
13172;DHT22;6651;53.200;10.432;2023-06-24T15:50:44;27.40;99.90